createdAt,value
2017-05-27T00:00:59.607Z,99.90
2017-05-27T00:03:26.610Z,99.90
2017-05-27T00:05:54.737Z,99.90
2017-05-27T00:08:21.735Z,99.90
2017-05-27T00:10:49.746Z,99.90
2017-05-27T00:13:17.027Z,99.90
2017-05-27T00:15:44.062Z,99.90
2017-05-27T00:18:11.075Z,99.90
2017-05-27T00:20:39.242Z,99.90
2017-05-27T00:23:06.283Z,99.90
2017-05-27T00:25:33.280Z,99.90
2017-05-27T00:28:01.414Z,99.90
2017-05-27T00:30:28.941Z,99.90
2017-05-27T00:32:55.935Z,99.90
2017-05-27T00:35:23.294Z,99.90
2017-05-27T00:37:50.306Z,99.90
2017-05-27T00:40:17.304Z,99.90
2017-05-27T00:42:45.569Z,99.90
2017-05-27T00:45:12.569Z,99.90
2017-05-27T00:47:39.573Z,99.90
2017-05-27T00:50:06.909Z,99.90
2017-05-27T00:52:33.917Z,99.90
2017-05-27T00:55:00.941Z,99.90
2017-05-27T00:57:28.231Z,99.90
2017-05-27T00:59:55.246Z,99.90
2017-05-27T01:02:23.250Z,99.90
2017-05-27T01:04:50.554Z,99.90
2017-05-27T01:07:17.538Z,99.90
2017-05-27T01:09:44.529Z,99.90
2017-05-27T01:12:11.857Z,99.90
2017-05-27T01:14:38.880Z,99.90
2017-05-27T01:17:05.870Z,99.90
2017-05-27T01:19:33.166Z,99.90
2017-05-27T01:22:00.631Z,99.90
2017-05-27T01:24:27.631Z,99.90
2017-05-27T01:26:54.968Z,99.90
2017-05-27T01:29:21.961Z,99.90
2017-05-27T01:31:48.990Z,99.90
2017-05-27T01:34:16.303Z,99.90
2017-05-27T01:36:43.310Z,99.90
2017-05-27T01:39:10.340Z,99.90
2017-05-27T01:41:37.690Z,99.90
2017-05-27T01:44:03.967Z,99.90
2017-05-27T01:46:30.990Z,99.90
2017-05-27T01:48:59.322Z,99.90
2017-05-27T01:51:26.326Z,99.90
2017-05-27T01:53:53.326Z,99.90
2017-05-27T01:56:21.546Z,99.90
2017-05-27T01:58:48.539Z,99.90
2017-05-27T02:01:15.557Z,99.90
2017-05-27T02:03:43.651Z,99.90
2017-05-27T02:06:10.673Z,99.90
2017-05-27T02:08:37.670Z,99.90
2017-05-27T02:11:04.982Z,99.90
2017-05-27T02:13:31.973Z,99.90
2017-05-27T02:15:58.986Z,99.90
2017-05-27T02:18:26.331Z,99.90
2017-05-27T02:20:53.339Z,99.90
2017-05-27T02:23:20.342Z,99.90
2017-05-27T02:25:47.681Z,99.90
2017-05-27T02:28:14.677Z,99.90
2017-05-27T02:30:41.693Z,99.90
2017-05-27T02:33:09.026Z,99.90
2017-05-27T02:35:37.038Z,99.90
2017-05-27T02:38:04.034Z,99.90
2017-05-27T02:40:31.385Z,99.90
2017-05-27T02:42:58.391Z,99.90
2017-05-27T02:45:24.645Z,99.90
2017-05-27T02:47:51.258Z,99.90
2017-05-27T02:50:18.282Z,99.90
2017-05-27T02:52:45.309Z,99.90
2017-05-27T02:55:13.477Z,99.90
2017-05-27T02:57:40.478Z,99.90
2017-05-27T03:00:07.473Z,99.90
2017-05-27T03:02:34.761Z,99.90
2017-05-27T03:05:01.010Z,99.90
2017-05-27T03:07:28.010Z,99.90
2017-05-27T03:09:55.361Z,99.90
2017-05-27T03:12:22.361Z,99.90
2017-05-27T03:14:49.360Z,99.90
2017-05-27T03:17:16.647Z,99.90
2017-05-27T03:19:43.650Z,99.90
2017-05-27T03:22:10.647Z,99.90
2017-05-27T03:24:38.026Z,99.90
2017-05-27T03:27:05.044Z,99.90
2017-05-27T03:29:35.936Z,99.90
2017-05-27T03:32:02.943Z,99.90
2017-05-27T03:34:29.953Z,99.90
2017-05-27T03:36:57.259Z,99.90
2017-05-27T03:39:25.029Z,99.90
2017-05-27T03:41:52.033Z,99.90
2017-05-27T03:44:19.424Z,99.90
2017-05-27T03:46:46.438Z,99.90
2017-05-27T03:49:13.449Z,99.90
2017-05-27T03:51:40.753Z,99.90
2017-05-27T03:54:08.436Z,99.90
2017-05-27T03:56:35.436Z,99.90
2017-05-27T03:59:02.949Z,99.90
2017-05-27T04:01:29.958Z,99.90
2017-05-27T04:03:57.793Z,99.90
2017-05-27T04:06:24.909Z,99.90
2017-05-27T04:08:51.921Z,99.90
2017-05-27T04:11:18.921Z,99.90
2017-05-27T04:13:46.233Z,99.90
2017-05-27T04:16:14.073Z,99.90
2017-05-27T04:18:41.077Z,99.90
2017-05-27T04:21:10.177Z,99.90
2017-05-27T04:23:37.161Z,99.90
2017-05-27T04:26:04.168Z,99.90
2017-05-27T04:28:31.498Z,99.90
2017-05-27T04:30:58.501Z,99.90
2017-05-27T04:33:25.505Z,99.90
2017-05-27T04:35:53.717Z,99.90
2017-05-27T04:38:20.718Z,99.90
2017-05-27T04:40:48.722Z,99.90
2017-05-27T04:43:17.019Z,99.90
2017-05-27T04:45:44.027Z,99.90
2017-05-27T04:48:11.025Z,99.90
2017-05-27T04:50:38.389Z,99.90
2017-05-27T04:53:05.378Z,99.90
2017-05-27T04:55:32.371Z,99.90
2017-05-27T04:57:59.842Z,99.90
2017-05-27T05:00:26.862Z,99.90
2017-05-27T05:02:54.718Z,99.90
2017-05-27T05:05:22.103Z,99.90
2017-05-27T05:07:49.134Z,99.90
2017-05-27T05:10:16.173Z,99.90
2017-05-27T05:12:43.557Z,99.90
2017-05-27T05:15:10.565Z,99.90
2017-05-27T05:17:38.577Z,99.90
2017-05-27T05:20:05.197Z,99.90
2017-05-27T05:22:33.196Z,99.90
2017-05-27T05:25:00.204Z,99.90
2017-05-27T05:27:27.517Z,99.90
2017-05-27T05:29:54.525Z,99.90
2017-05-27T05:32:21.518Z,99.90
2017-05-27T05:34:50.457Z,99.90
2017-05-27T05:37:19.153Z,99.90
2017-05-27T05:39:46.158Z,99.90
2017-05-27T05:42:13.543Z,99.90
2017-05-27T05:44:40.830Z,99.90
2017-05-27T05:47:07.125Z,99.90
2017-05-27T05:49:35.341Z,99.90
2017-05-27T05:52:03.254Z,99.90
2017-05-27T05:54:30.910Z,99.90
2017-05-27T05:56:59.302Z,99.90
2017-05-27T05:59:26.301Z,99.90
2017-05-27T06:01:53.307Z,99.90
2017-05-27T06:04:20.658Z,99.90
2017-05-27T06:06:47.719Z,99.90
2017-05-27T06:09:14.724Z,99.90
2017-05-27T06:11:42.097Z,99.90
2017-05-27T06:14:09.101Z,99.90
2017-05-27T06:16:37.090Z,99.90
2017-05-27T06:19:06.203Z,99.90
2017-05-27T06:21:33.213Z,99.90
2017-05-27T06:24:00.246Z,99.90
2017-05-27T06:26:29.207Z,99.90
2017-05-27T06:28:56.208Z,99.90
2017-05-27T06:31:23.202Z,99.90
2017-05-27T06:33:50.541Z,99.90
2017-05-27T06:36:17.553Z,98.20
2017-05-27T06:38:44.858Z,98.30
2017-05-27T06:41:13.418Z,99.90
2017-05-27T06:43:40.441Z,94.50
2017-05-27T06:46:07.474Z,97.00
2017-05-27T06:48:34.502Z,97.40
2017-05-27T06:51:02.393Z,98.10
2017-05-27T06:53:30.357Z,96.70
2017-05-27T06:55:57.381Z,92.20
2017-05-27T06:58:24.699Z,81.90
2017-05-27T07:00:53.323Z,88.90
2017-05-27T07:03:20.413Z,91.30
2017-05-27T07:05:48.703Z,90.30
2017-05-27T07:08:16.642Z,93.50
2017-05-27T07:10:45.454Z,88.60
2017-05-27T07:13:12.483Z,90.60
2017-05-27T07:15:39.505Z,90.60
2017-05-27T07:18:06.526Z,76.20
2017-05-27T07:20:33.549Z,73.30
2017-05-27T07:23:00.565Z,74.10
2017-05-27T07:25:27.581Z,72.90
2017-05-27T07:27:54.593Z,73.60
2017-05-27T07:30:21.609Z,72.10
2017-05-27T07:32:48.616Z,69.00
2017-05-27T07:35:14.901Z,69.10
2017-05-27T07:37:42.978Z,70.00
2017-05-27T07:40:10.002Z,72.70
2017-05-27T07:42:37.021Z,66.60
2017-05-27T07:45:04.029Z,67.30
2017-05-27T07:47:31.361Z,67.50
2017-05-27T07:49:58.361Z,71.40
2017-05-27T07:52:25.900Z,68.20
2017-05-27T07:54:53.217Z,68.60
2017-05-27T07:57:20.754Z,68.80
2017-05-27T07:59:47.967Z,69.20
2017-05-27T08:02:14.781Z,71.60
2017-05-27T08:04:42.641Z,73.00
2017-05-27T08:07:09.646Z,68.40
2017-05-27T08:09:37.042Z,69.30
2017-05-27T08:12:04.090Z,69.30
2017-05-27T08:14:31.114Z,65.60
2017-05-27T08:17:00.129Z,68.40
2017-05-27T08:19:27.170Z,65.90
2017-05-27T08:21:53.805Z,65.60
2017-05-27T08:24:20.846Z,62.90
2017-05-27T08:26:47.847Z,64.80
2017-05-27T08:29:15.168Z,63.00
2017-05-27T08:31:43.102Z,65.60
2017-05-27T08:34:17.234Z,57.90
2017-05-27T08:36:44.230Z,62.40
2017-05-27T08:39:11.235Z,61.70
2017-05-27T08:41:38.577Z,60.80
2017-05-27T08:44:05.572Z,58.70
2017-05-27T08:46:32.575Z,60.60
2017-05-27T08:49:00.817Z,63.80
2017-05-27T08:51:27.843Z,62.00
2017-05-27T08:53:54.122Z,62.00
2017-05-27T08:56:22.401Z,58.50
2017-05-27T08:58:49.435Z,56.90
2017-05-27T09:01:16.511Z,55.30
2017-05-27T09:03:44.041Z,55.40
2017-05-27T09:06:11.042Z,54.20
2017-05-27T09:08:38.045Z,53.50
2017-05-27T09:11:05.406Z,53.20
2017-05-27T09:13:32.999Z,55.10
2017-05-27T09:16:00.321Z,53.80
2017-05-27T09:18:27.342Z,56.90
2017-05-27T09:20:54.375Z,54.50
2017-05-27T09:23:21.697Z,54.90
2017-05-27T09:25:48.746Z,55.40
2017-05-27T09:28:16.548Z,56.10
2017-05-27T09:30:43.569Z,56.10
2017-05-27T09:33:10.616Z,53.30
2017-05-27T09:35:37.649Z,50.10
2017-05-27T09:38:04.674Z,50.50
2017-05-27T09:40:31.694Z,51.80
2017-05-27T09:42:58.713Z,51.80
2017-05-27T09:45:25.733Z,54.90
2017-05-27T09:47:52.753Z,49.40
2017-05-27T09:50:20.622Z,50.80
2017-05-27T09:52:48.785Z,50.80
2017-05-27T09:55:15.829Z,53.70
2017-05-27T09:57:42.818Z,52.60
2017-05-27T10:00:11.065Z,55.70
2017-05-27T10:02:38.406Z,48.90
2017-05-27T10:05:06.241Z,50.70
2017-05-27T10:07:33.741Z,50.70
2017-05-27T10:10:02.078Z,52.10
2017-05-27T10:12:29.622Z,54.10
2017-05-27T10:14:56.678Z,52.20
2017-05-27T10:17:23.693Z,50.20
2017-05-27T10:19:51.243Z,49.50
2017-05-27T10:22:18.657Z,55.10
2017-05-27T10:24:45.741Z,52.30
2017-05-27T10:27:12.745Z,53.10
2017-05-27T10:29:41.993Z,54.80
2017-05-27T10:32:09.791Z,53.80
2017-05-27T10:34:36.814Z,48.60
2017-05-27T10:37:04.482Z,46.10
2017-05-27T10:39:31.503Z,49.00
2017-05-27T10:41:59.357Z,50.80
2017-05-27T10:44:27.373Z,49.00
2017-05-27T10:46:54.398Z,49.00
2017-05-27T10:49:21.419Z,49.10
2017-05-27T10:51:48.710Z,48.20
2017-05-27T10:54:15.804Z,46.30
2017-05-27T10:56:42.850Z,47.80
2017-05-27T10:59:09.869Z,47.90
2017-05-27T11:01:37.249Z,48.20
2017-05-27T11:04:04.270Z,51.50
2017-05-27T11:06:31.282Z,54.10
2017-05-27T11:08:59.274Z,47.90
2017-05-27T11:11:26.297Z,50.60
2017-05-27T11:13:53.318Z,47.00
2017-05-27T11:16:21.505Z,48.30
2017-05-27T11:18:48.537Z,52.70
2017-05-27T11:21:16.536Z,54.00
2017-05-27T11:23:44.775Z,53.10
2017-05-27T11:26:12.774Z,43.20
2017-05-27T11:28:39.793Z,44.70
2017-05-27T11:31:08.753Z,47.20
2017-05-27T11:33:36.782Z,43.90
2017-05-27T11:36:04.065Z,44.70
2017-05-27T11:38:32.101Z,45.60
2017-05-27T11:40:59.147Z,48.30
2017-05-27T11:43:26.979Z,47.20
2017-05-27T11:45:54.009Z,51.90
2017-05-27T11:48:22.030Z,49.60
2017-05-27T11:50:49.041Z,48.70
2017-05-27T11:53:16.358Z,48.20
2017-05-27T11:55:44.083Z,52.80
2017-05-27T11:58:11.086Z,45.90
2017-05-27T12:00:39.269Z,45.50
2017-05-27T12:03:07.445Z,45.90
2017-05-27T12:05:34.446Z,44.30
2017-05-27T12:08:02.465Z,47.40
2017-05-27T12:10:29.813Z,46.90
2017-05-27T12:12:57.518Z,46.10
2017-05-27T12:15:24.514Z,49.60
2017-05-27T12:17:52.561Z,49.50
2017-05-27T12:20:20.122Z,43.50
2017-05-27T12:22:47.121Z,43.90
2017-05-27T12:25:13.718Z,43.90
2017-05-27T12:27:40.727Z,38.70
2017-05-27T12:30:08.382Z,39.70
2017-05-27T12:32:37.133Z,37.80
2017-05-27T12:35:03.391Z,37.80
2017-05-27T12:37:30.582Z,35.60
2017-05-27T12:39:59.742Z,35.70
2017-05-27T12:42:26.730Z,36.70
2017-05-27T12:44:54.261Z,35.50
2017-05-27T12:47:22.685Z,32.70
2017-05-27T12:49:50.698Z,32.90
2017-05-27T12:52:17.702Z,31.80
2017-05-27T12:54:45.049Z,30.90
2017-05-27T12:57:13.864Z,32.80
2017-05-27T12:59:41.193Z,33.20
2017-05-27T13:02:09.334Z,30.90
2017-05-27T13:04:37.394Z,30.20
2017-05-27T13:07:04.450Z,30.50
2017-05-27T13:09:32.436Z,32.30
2017-05-27T13:12:00.002Z,34.80
2017-05-27T13:14:27.008Z,31.60
2017-05-27T13:16:56.358Z,30.80
2017-05-27T13:19:24.175Z,28.20
2017-05-27T13:21:51.179Z,28.70
2017-05-27T13:24:18.521Z,28.40
2017-05-27T13:26:46.081Z,30.20
2017-05-27T13:29:13.087Z,30.90
2017-05-27T13:31:40.378Z,29.30
2017-05-27T13:34:07.370Z,29.80
2017-05-27T13:36:35.307Z,28.90
2017-05-27T13:39:03.666Z,31.90
2017-05-27T13:41:30.665Z,28.80
2017-05-27T13:43:57.679Z,28.40
2017-05-27T13:46:25.954Z,32.70
2017-05-27T13:48:52.956Z,27.50
2017-05-27T13:51:19.962Z,27.10
2017-05-27T13:53:47.281Z,28.20
2017-05-27T13:56:15.945Z,25.70
2017-05-27T13:58:42.951Z,26.60
2017-05-27T14:01:11.299Z,27.00
2017-05-27T14:03:38.298Z,30.40
2017-05-27T14:06:06.147Z,25.20
2017-05-27T14:08:34.441Z,26.20
2017-05-27T14:11:01.447Z,27.90
2017-05-27T14:13:28.443Z,28.20
2017-05-27T14:15:55.825Z,30.00
2017-05-27T14:18:22.830Z,27.00
2017-05-27T14:20:49.086Z,26.80
2017-05-27T14:23:16.390Z,26.60
2017-05-27T14:25:44.433Z,27.90
2017-05-27T14:28:11.443Z,27.50
2017-05-27T14:30:39.437Z,27.20
2017-05-27T14:33:05.710Z,27.20
2017-05-27T14:35:32.716Z,26.70
2017-05-27T14:38:00.069Z,28.00
2017-05-27T14:40:27.596Z,28.10
2017-05-27T14:42:54.593Z,26.60
2017-05-27T14:45:21.925Z,27.10
2017-05-27T14:47:48.918Z,25.60
2017-05-27T14:50:15.994Z,27.20
2017-05-27T14:52:44.040Z,27.40
2017-05-27T14:55:12.066Z,28.20
2017-05-27T14:57:39.078Z,28.40
2017-05-27T15:00:06.458Z,25.80
2017-05-27T15:02:33.465Z,28.20
2017-05-27T15:05:01.453Z,25.90
2017-05-27T15:07:28.629Z,25.90
2017-05-27T15:09:56.549Z,28.20
2017-05-27T15:12:27.350Z,25.80
2017-05-27T15:14:54.691Z,27.00
2017-05-27T15:17:21.691Z,27.60
2017-05-27T15:19:47.946Z,27.50
2017-05-27T15:22:15.322Z,27.20
2017-05-27T15:24:43.326Z,27.60
2017-05-27T15:27:10.329Z,27.70
2017-05-27T15:29:38.345Z,27.80
2017-05-27T15:32:05.355Z,28.70
2017-05-27T15:34:34.016Z,28.80
2017-05-27T15:37:01.893Z,28.40
2017-05-27T15:39:28.894Z,29.10
2017-05-27T15:41:55.881Z,27.90
2017-05-27T15:44:23.374Z,27.90
2017-05-27T15:46:50.380Z,27.50
2017-05-27T15:49:17.389Z,27.10
2017-05-27T15:51:44.694Z,27.20
2017-05-27T15:54:11.702Z,27.60
2017-05-27T15:56:38.704Z,27.60
2017-05-27T15:59:06.981Z,27.80
2017-05-27T16:01:33.986Z,27.60
2017-05-27T16:04:00.986Z,26.70
2017-05-27T16:06:29.042Z,27.80
2017-05-27T16:08:57.038Z,28.50
2017-05-27T16:11:24.033Z,28.80
2017-05-27T16:13:52.061Z,27.50
2017-05-27T16:16:19.071Z,27.40
2017-05-27T16:18:47.075Z,27.80
2017-05-27T16:21:15.802Z,28.10
2017-05-27T16:23:43.382Z,27.80
2017-05-27T16:26:10.386Z,29.30
2017-05-27T16:28:37.768Z,28.00
2017-05-27T16:31:06.329Z,27.50
2017-05-27T16:33:34.746Z,28.40
2017-05-27T16:36:02.074Z,28.90
2017-05-27T16:38:29.082Z,28.50
2017-05-27T16:40:56.085Z,27.90
2017-05-27T16:43:23.422Z,28.80
2017-05-27T16:45:50.417Z,30.30
2017-05-27T16:48:16.682Z,30.30
2017-05-27T16:50:44.977Z,28.20
2017-05-27T16:53:11.259Z,28.20
2017-05-27T16:55:38.285Z,30.50
2017-05-27T16:58:06.459Z,32.20
2017-05-27T17:00:33.449Z,31.10
2017-05-27T17:03:00.454Z,30.00
2017-05-27T17:05:28.510Z,32.10
2017-05-27T17:07:55.510Z,34.70
2017-05-27T17:10:22.519Z,38.80
2017-05-27T17:12:49.826Z,39.50
2017-05-27T17:15:16.858Z,41.60
2017-05-27T17:17:43.863Z,39.90
2017-05-27T17:20:12.142Z,42.70
2017-05-27T17:22:39.145Z,44.60
2017-05-27T17:25:06.151Z,43.80
2017-05-27T17:27:34.202Z,43.90
2017-05-27T17:30:01.201Z,45.50
2017-05-27T17:32:28.226Z,46.70
2017-05-27T17:34:56.273Z,47.40
2017-05-27T17:37:23.306Z,49.20
2017-05-27T17:39:51.261Z,49.90
2017-05-27T17:42:19.327Z,48.60
2017-05-27T17:44:46.330Z,51.20
2017-05-27T17:47:13.333Z,53.30
2017-05-27T17:49:41.454Z,52.20
2017-05-27T17:52:08.462Z,52.20
2017-05-27T17:54:35.463Z,54.60
2017-05-27T17:57:02.814Z,55.10
2017-05-27T17:59:30.749Z,53.70
2017-05-27T18:01:57.749Z,54.90
2017-05-27T18:04:26.098Z,56.20
2017-05-27T18:06:53.132Z,56.20
2017-05-27T18:09:20.147Z,58.90
2017-05-27T18:11:47.567Z,58.80
2017-05-27T18:14:14.569Z,59.60
2017-05-27T18:16:42.265Z,62.00
2017-05-27T18:19:09.565Z,62.30
2017-05-27T18:21:36.578Z,63.80
2017-05-27T18:24:03.584Z,62.80
2017-05-27T18:26:31.718Z,65.40
2017-05-27T18:28:58.717Z,64.90
2017-05-27T18:31:26.358Z,65.10
2017-05-27T18:33:52.933Z,65.20
2017-05-27T18:36:19.946Z,65.20
2017-05-27T18:38:46.949Z,66.70
2017-05-27T18:41:15.230Z,66.40
2017-05-27T18:43:42.242Z,67.90
2017-05-27T18:46:09.357Z,69.40
2017-05-27T18:48:36.737Z,70.20
2017-05-27T18:51:04.773Z,72.20
2017-05-27T18:53:31.981Z,71.40
2017-05-27T18:56:00.002Z,70.50
2017-05-27T18:58:26.989Z,74.60
2017-05-27T19:00:53.981Z,87.00
2017-05-27T19:03:21.323Z,90.30
2017-05-27T19:05:48.334Z,93.10
2017-05-27T19:08:15.355Z,95.10
2017-05-27T19:10:42.652Z,95.30
2017-05-27T19:13:09.677Z,97.00
2017-05-27T19:15:36.678Z,96.30
2017-05-27T19:18:04.958Z,97.90
2017-05-27T19:20:31.972Z,98.50
2017-05-27T19:22:59.584Z,99.90
2017-05-27T19:25:26.869Z,99.90
2017-05-27T19:27:53.896Z,99.80
2017-05-27T19:30:20.890Z,99.90
2017-05-27T19:32:48.186Z,99.90
2017-05-27T19:35:15.210Z,99.90
2017-05-27T19:37:42.225Z,99.90
2017-05-27T19:40:09.538Z,99.90
2017-05-27T19:42:36.570Z,99.90
2017-05-27T19:45:04.173Z,99.90
2017-05-27T19:47:31.494Z,99.90
2017-05-27T19:49:58.481Z,99.90
2017-05-27T19:52:25.486Z,99.90
2017-05-27T19:54:53.410Z,99.90
2017-05-27T19:57:20.431Z,99.90
2017-05-27T19:59:47.457Z,99.90
2017-05-27T20:02:14.810Z,99.90
2017-05-27T20:04:41.818Z,99.90
2017-05-27T20:07:08.829Z,99.90
2017-05-27T20:09:36.148Z,99.90
2017-05-27T20:12:03.149Z,99.90
2017-05-27T20:14:30.151Z,99.90
2017-05-27T20:16:58.244Z,99.90
2017-05-27T20:19:26.214Z,99.90
2017-05-27T20:21:53.842Z,99.90
2017-05-27T20:24:21.195Z,99.90
2017-05-27T20:26:50.555Z,99.90
2017-05-27T20:29:17.554Z,99.90
2017-05-27T20:31:44.890Z,99.90
2017-05-27T20:34:11.901Z,99.90
2017-05-27T20:36:39.848Z,99.90
2017-05-27T20:39:07.166Z,99.90
2017-05-27T20:41:34.183Z,99.90
2017-05-27T20:44:01.189Z,99.90
2017-05-27T20:46:28.506Z,99.90
2017-05-27T20:48:55.519Z,99.90
2017-05-27T20:51:22.521Z,99.90
2017-05-27T20:53:49.849Z,99.90
2017-05-27T20:56:16.841Z,99.90
2017-05-27T20:58:44.559Z,99.90
2017-05-27T21:01:11.910Z,99.90
2017-05-27T21:03:38.913Z,99.90
2017-05-27T21:06:05.190Z,99.90
2017-05-27T21:08:33.451Z,99.90
2017-05-27T21:11:01.025Z,99.90
2017-05-27T21:13:28.027Z,99.90
2017-05-27T21:15:55.318Z,99.90
2017-05-27T21:18:22.326Z,99.90
2017-05-27T21:20:49.326Z,99.90
2017-05-27T21:23:17.716Z,99.90
2017-05-27T21:25:45.292Z,99.90
2017-05-27T21:28:12.826Z,99.90
2017-05-27T21:30:40.669Z,99.90
2017-05-27T21:33:07.661Z,99.90
2017-05-27T21:35:34.727Z,99.90
2017-05-27T21:38:02.818Z,99.90
2017-05-27T21:40:29.846Z,99.90
2017-05-27T21:42:57.589Z,99.90
2017-05-27T21:45:25.879Z,99.90
2017-05-27T21:47:52.905Z,99.90
2017-05-27T21:50:19.902Z,99.90
2017-05-27T21:52:47.990Z,99.90
2017-05-27T21:55:15.029Z,99.90
2017-05-27T21:57:42.561Z,99.90
2017-05-27T22:00:09.945Z,99.90
2017-05-27T22:02:36.946Z,99.90
2017-05-27T22:05:04.796Z,99.90
2017-05-27T22:07:32.674Z,99.90
2017-05-27T22:10:00.841Z,99.90
2017-05-27T22:12:27.843Z,99.90
2017-05-27T22:14:55.939Z,99.90
2017-05-27T22:17:22.948Z,99.90
2017-05-27T22:19:51.267Z,99.90
2017-05-27T22:22:18.690Z,99.90
2017-05-27T22:24:45.697Z,99.90
2017-05-27T22:27:12.753Z,99.90
2017-05-27T22:29:40.962Z,99.90
2017-05-27T22:32:07.973Z,99.90
2017-05-27T22:34:34.973Z,99.90
2017-05-27T22:37:02.301Z,99.90
2017-05-27T22:39:29.306Z,99.90
2017-05-27T22:41:57.589Z,99.90
2017-05-27T22:44:25.596Z,99.90
2017-05-27T22:46:53.433Z,99.90
2017-05-27T22:49:20.438Z,99.90
2017-05-27T22:51:47.745Z,99.90
2017-05-27T22:54:14.742Z,99.90
2017-05-27T22:56:41.755Z,99.90
2017-05-27T22:59:09.903Z,99.90
2017-05-27T23:01:36.907Z,99.90
2017-05-27T23:04:03.909Z,99.90
2017-05-27T23:06:31.270Z,99.90
2017-05-27T23:08:58.274Z,99.90
2017-05-27T23:11:25.964Z,99.90
2017-05-27T23:13:54.208Z,99.90
2017-05-27T23:16:21.222Z,99.90
2017-05-27T23:18:48.225Z,99.90
2017-05-27T23:21:15.605Z,99.90
2017-05-27T23:23:43.535Z,99.90
2017-05-27T23:26:10.529Z,99.90
2017-05-27T23:28:38.709Z,99.90
2017-05-27T23:31:06.533Z,99.90
2017-05-27T23:33:33.538Z,99.90
2017-05-27T23:36:03.862Z,99.90
2017-05-27T23:38:30.866Z,99.90
2017-05-27T23:40:57.861Z,99.90
2017-05-27T23:43:25.909Z,99.90
2017-05-27T23:45:53.471Z,99.90
2017-05-27T23:48:20.469Z,99.90
2017-05-27T23:50:47.841Z,99.90
2017-05-27T23:53:14.873Z,99.90
2017-05-27T23:55:42.421Z,99.90
2017-05-27T23:58:09.807Z,99.90
